Time;durP1;ratioP1;P1;durP2;ratioP2;P2;SDS_P1;SDS_P2;PMS_P1;PMS_P2;Temp;Humidity;BMP_temperature;BMP_pressure;BME280_temperature;BME280_humidity;BME280_pressure;Samples;Min_cycle;Max_cycle;Signal;HPM_P1;HPM_P2
2022/10/27 00:02:26;;;;;;;7.20;6.28;;;;;;;11.62;63.50;95800.31;5078437;28;20192;-69
2022/10/27 00:04:53;;;;;;;7.80;6.22;;;;;;;11.65;63.37;95802.41;5078339;28;20216;-69
2022/10/27 00:07:20;;;;;;;6.80;6.10;;;;;;;11.65;63.67;95805.16;5078389;28;20188;-69
2022/10/27 00:09:47;;;;;;;7.32;5.80;;;;;;;11.63;64.25;95808.28;5078741;28;20180;-68
2022/10/27 00:12:13;;;;;;;7.43;5.75;;;;;;;11.61;63.95;95807.00;5078617;28;20208;-69
2022/10/27 00:14:40;;;;;;;7.22;5.90;;;;;;;11.52;63.79;95807.09;5078897;28;20196;-69
2022/10/27 00:17:07;;;;;;;7.03;5.97;;;;;;;11.47;64.09;95805.34;5078244;28;20196;-69
2022/10/27 00:19:35;;;;;;;6.15;5.55;;;;;;;11.47;64.29;95810.84;5078232;28;20196;-69
2022/10/27 00:22:02;;;;;;;7.10;6.25;;;;;;;11.45;64.35;95812.38;5078117;28;20215;-69
2022/10/27 00:24:29;;;;;;;9.23;6.40;;;;;;;11.47;64.36;95818.34;5078001;28;20224;-69
2022/10/27 00:26:56;;;;;;;7.20;6.22;;;;;;;11.48;64.33;95809.72;5078152;28;20200;-69
2022/10/27 00:29:22;;;;;;;6.97;6.13;;;;;;;11.53;64.50;95812.28;5078139;28;20215;-69
2022/10/27 00:31:49;;;;;;;8.70;6.40;;;;;;;11.54;64.41;95802.81;5078160;28;20195;-69
2022/10/27 00:34:16;;;;;;;7.28;6.03;;;;;;;11.54;64.41;95804.78;5095986;28;20208;-69
2022/10/27 00:36:44;;;;;;;6.72;5.97;;;;;;;11.56;64.57;95808.03;5077821;28;20639;-69
2022/10/27 00:39:11;;;;;;;7.72;6.72;;;;;;;11.59;64.43;95817.59;5077883;28;20200;-69
2022/10/27 00:41:40;;;;;;;7.85;7.05;;;;;;;11.60;64.55;95819.22;5078167;28;20196;-69
2022/10/27 00:44:31;;;;;;;7.32;6.63;;;;;;;11.57;64.79;95815.16;5078027;28;20224;-69
2022/10/27 00:47:01;;;;;;;7.25;6.32;;;;;;;11.57;64.80;95815.16;5078430;28;20192;-69
2022/10/27 00:49:30;;;;;;;7.05;6.13;;;;;;;11.60;64.96;95825.53;5094643;28;20287;-69
2022/10/27 00:52:02;;;;;;;7.53;6.25;;;;;;;11.60;64.97;95825.53;5077692;28;20600;-69
2022/10/27 00:54:32;;;;;;;6.80;6.10;;;;;;;11.63;65.08;95818.53;5078734;28;20211;-69
2022/10/27 00:56:59;;;;;;;6.47;5.85;;;;;;;11.65;64.96;95817.00;5098251;28;20207;-69
2022/10/27 00:59:26;;;;;;;6.60;5.90;;;;;;;11.66;64.87;95828.91;5098256;28;20203;-69
2022/10/27 01:01:53;;;;;;;7.35;6.43;;;;;;;11.59;65.12;95820.38;5097899;28;20207;-69
2022/10/27 01:04:26;;;;;;;6.60;5.93;;;;;;;11.53;65.35;95828.03;5097907;28;20233;-69
2022/10/27 01:06:53;;;;;;;6.82;6.22;;;;;;;11.53;65.15;95833.56;5098305;28;20184;-69
2022/10/27 01:09:22;;;;;;;7.32;6.35;;;;;;;11.53;65.78;95836.34;5098133;28;20228;-69
2022/10/27 01:11:48;;;;;;;9.30;6.65;;;;;;;11.50;65.34;95832.28;5097622;28;20192;-69
2022/10/27 01:14:15;;;;;;;7.63;6.20;;;;;;;11.47;65.18;95845.97;5097847;28;20192;-69
2022/10/27 01:16:49;;;;;;;7.30;6.05;;;;;;;11.47;65.11;95843.22;5098497;28;20199;-69
2022/10/27 01:19:33;;;;;;;6.82;6.13;;;;;;;11.48;65.29;95848.41;5098284;28;20205;-69
2022/10/27 01:22:06;;;;;;;6.22;5.63;;;;;;;11.50;65.30;95846.09;5097497;28;20202;-70
2022/10/27 01:24:57;;;;;;;6.32;5.72;;;;;;;11.52;65.38;95843.00;5097892;28;20207;-69
2022/10/27 01:27:51;;;;;;;8.27;6.22;;;;;;;11.47;65.86;95849.53;5097926;28;20195;-69
2022/10/27 01:30:19;;;;;;;6.70;6.00;;;;;;;11.47;66.00;95849.53;5097421;28;20241;-69
2022/10/27 01:32:55;;;;;;;6.68;5.90;;;;;;;11.48;65.96;95845.66;5097711;28;20192;-69
2022/10/27 01:35:28;;;;;;;6.88;6.07;;;;;;;11.47;65.91;95857.03;5115261;28;20188;-70
2022/10/27 01:37:59;;;;;;;7.10;6.40;;;;;;;11.46;66.04;95852.66;5097820;28;20199;-69
2022/10/27 01:40:28;;;;;;;6.70;5.93;;;;;;;11.44;66.09;95855.75;5101878;28;20202;-69
2022/10/27 01:42:59;;;;;;;6.75;6.00;;;;;;;11.48;66.04;95851.16;5102122;28;20195;-70
2022/10/27 01:45:28;;;;;;;7.00;6.15;;;;;;;11.51;65.85;95838.63;5102013;28;20192;-70
2022/10/27 01:47:57;;;;;;;6.60;6.00;;;;;;;11.54;65.83;95841.50;5101879;28;20202;-70
2022/10/27 01:50:27;;;;;;;7.63;6.32;;;;;;;11.60;65.58;95842.09;5101550;28;20192;-69
2022/10/27 01:52:54;;;;;;;6.97;6.10;;;;;;;11.60;65.56;95838.53;5101744;28;20198;-70
2022/10/27 01:55:29;;;;;;;6.22;5.72;;;;;;;11.54;65.55;95837.94;5101177;28;20247;-70
2022/10/27 01:58:18;;;;;;;6.30;5.70;;;;;;;11.48;65.69;95834.59;5101538;28;20198;-70
2022/10/27 02:00:55;;;;;;;7.18;6.47;;;;;;;11.43;66.10;95834.00;5101838;28;20215;-70
2022/10/27 02:03:27;;;;;;;6.30;5.70;;;;;;;11.40;66.00;95831.91;5101213;28;20223;-70
2022/10/27 02:06:02;;;;;;;6.18;5.57;;;;;;;11.38;66.47;95836.97;5101519;28;20198;-70
2022/10/27 02:08:36;;;;;;;6.20;5.47;;;;;;;11.39;66.17;95835.81;5101374;28;20191;-70
2022/10/27 02:11:04;;;;;;;6.68;5.80;;;;;;;11.33;66.59;95830.53;5101380;28;20199;-70
2022/10/27 02:13:33;;;;;;;6.38;5.78;;;;;;;11.31;66.21;95832.00;5101055;28;20196;-70
2022/10/27 02:16:03;;;;;;;9.50;5.85;;;;;;;11.32;66.31;95834.41;5119301;28;20195;-71
2022/10/27 02:18:34;;;;;;;6.97;5.82;;;;;;;11.33;66.00;95838.00;5101228;28;20531;-70
2022/10/27 02:21:03;;;;;;;8.00;6.43;;;;;;;11.35;66.14;95832.94;5101091;28;20200;-70
2022/10/27 02:23:30;;;;;;;8.50;6.80;;;;;;;11.37;66.05;95846.41;5100831;28;20223;-70
2022/10/27 02:25:59;;;;;;;7.95;6.75;;;;;;;11.39;66.33;95844.91;5100974;28;20192;-70
2022/10/27 02:28:28;;;;;;;7.47;6.43;;;;;;;11.40;65.89;95841.03;5100941;28;20235;-70
2022/10/27 02:30:56;;;;;;;8.98;6.45;;;;;;;11.46;65.47;95841.59;5100659;28;20681;-70
2022/10/27 02:33:23;;;;;;;8.40;6.55;;;;;;;11.49;65.61;95844.50;5101090;28;20199;-69
2022/10/27 02:35:51;;;;;;;7.32;6.10;;;;;;;11.54;65.38;95849.00;5100885;28;20199;-70
2022/10/27 02:38:18;;;;;;;7.47;6.47;;;;;;;11.52;65.37;95846.56;5100589;28;20184;-70
2022/10/27 02:40:45;;;;;;;9.50;6.30;;;;;;;11.54;65.18;95854.50;5100576;28;20206;-70
2022/10/27 02:43:12;;;;;;;9.02;6.00;;;;;;;11.54;65.29;95851.75;5100484;28;20196;-70
2022/10/27 02:45:38;;;;;;;9.60;6.57;;;;;;;11.55;65.89;95856.16;5100728;28;20188;-70
2022/10/27 02:48:05;;;;;;;7.57;6.10;;;;;;;11.51;66.49;95857.94;5100313;28;20206;-70
2022/10/27 02:50:32;;;;;;;8.18;6.57;;;;;;;11.48;66.48;95862.22;5100223;28;20199;-70
2022/10/27 02:53:00;;;;;;;7.05;6.45;;;;;;;11.48;66.09;95861.41;5100201;28;20195;-70
2022/10/27 02:55:27;;;;;;;7.28;6.38;;;;;;;11.46;66.60;95858.19;5100360;28;20231;-69
2022/10/27 02:57:54;;;;;;;7.40;6.35;;;;;;;11.37;66.52;95858.25;5100163;28;20195;-69
2022/10/27 03:00:21;;;;;;;7.82;6.20;;;;;;;11.30;66.74;95863.53;5100411;28;20192;-70
2022/10/27 03:02:48;;;;;;;8.95;6.30;;;;;;;11.30;66.69;95860.75;5100287;28;20199;-69
2022/10/27 03:05:15;;;;;;;9.25;7.22;;;;;;;11.30;66.39;95866.28;5100568;28;20254;-70
2022/10/27 03:07:43;;;;;;;9.23;6.50;;;;;;;11.31;66.88;95876.97;5100379;28;20184;-70
2022/10/27 03:10:11;;;;;;;9.98;6.40;;;;;;;11.30;66.45;95883.66;5100225;28;20200;-69
2022/10/27 03:12:38;;;;;;;8.25;6.07;;;;;;;11.32;66.26;95875.84;5099892;28;20545;-69
2022/10/27 03:15:06;;;;;;;6.22;5.63;;;;;;;11.35;66.29;95882.63;5100714;28;20191;-69
2022/10/27 03:17:33;;;;;;;9.00;6.22;;;;;;;11.40;66.01;95876.94;5099912;28;20187;-69
2022/10/27 03:20:00;;;;;;;6.97;5.47;;;;;;;11.43;66.11;95881.75;5099815;28;20200;-69
2022/10/27 03:22:26;;;;;;;8.07;6.40;;;;;;;11.43;65.91;95878.19;5099905;28;20188;-69
2022/10/27 03:24:53;;;;;;;9.60;6.50;;;;;;;11.39;66.37;95880.81;5117709;28;20207;-70
2022/10/27 03:27:21;;;;;;;9.85;6.38;;;;;;;11.30;66.78;95878.13;5099503;28;20188;-69
2022/10/27 03:29:48;;;;;;;8.13;6.40;;;;;;;11.25;66.90;95885.81;5099832;28;20196;-70
2022/10/27 03:32:15;;;;;;;7.55;6.47;;;;;;;11.24;66.80;95884.19;5099526;28;20220;-69
2022/10/27 03:34:42;;;;;;;7.80;6.53;;;;;;;11.19;67.12;95876.13;5099935;28;20200;-69
2022/10/27 03:37:08;;;;;;;7.82;6.20;;;;;;;11.11;66.90;95891.63;5099511;28;20184;-70
2022/10/27 03:39:35;;;;;;;8.05;6.57;;;;;;;11.09;67.11;95883.66;5099388;28;20187;-69
2022/10/27 03:42:02;;;;;;;10.18;6.00;;;;;;;11.12;67.00;95884.16;5099420;28;20538;-69
2022/10/27 03:44:30;;;;;;;5.90;5.05;;;;;;;11.15;67.04;95891.72;5099442;28;20215;-70
2022/10/27 03:46:57;;;;;;;5.50;4.97;;;;;;;11.16;66.76;95887.84;5099283;28;20539;-70
2022/10/27 03:49:24;;;;;;;6.82;5.68;;;;;;;11.18;67.02;95888.28;5099053;28;20203;-70
2022/10/27 03:51:50;;;;;;;7.45;6.55;;;;;;;11.19;66.44;95887.19;5099065;28;20211;-70
2022/10/27 03:54:20;;;;;;;7.45;6.13;;;;;;;11.18;66.41;95885.53;5098946;28;20207;-70
2022/10/27 03:56:47;;;;;;;7.43;6.45;;;;;;;11.20;66.63;95886.03;5099122;28;20235;-70
2022/10/27 03:59:13;;;;;;;6.78;6.05;;;;;;;11.22;66.41;95881.78;5099468;28;20206;-70
2022/10/27 04:01:42;;;;;;;7.78;6.63;;;;;;;11.25;66.31;95878.31;5098000;28;20645;-70
2022/10/27 04:04:11;;;;;;;10.45;7.30;;;;;;;11.24;66.49;95881.44;5099032;28;20207;-70
2022/10/27 04:06:38;;;;;;;9.73;8.13;;;;;;;11.17;66.70;95886.69;5099282;28;20202;-70
2022/10/27 04:09:05;;;;;;;10.43;7.43;;;;;;;11.13;67.00;95880.22;5098836;28;20210;-70
2022/10/27 04:11:32;;;;;;;9.07;8.13;;;;;;;11.13;66.54;95888.50;5099105;28;20195;-70
2022/10/27 04:14:21;;;;;;;12.95;9.00;;;;;;;11.16;66.76;95893.38;5116962;28;20207;-70
2022/10/27 04:17:09;;;;;;;8.02;7.22;;;;;;;11.16;66.87;95885.88;5114125;28;20207;-70
2022/10/27 04:19:56;;;;;;;8.90;7.35;;;;;;;11.18;66.60;95888.28;5113956;28;20642;-70
2022/10/27 04:22:23;;;;;;;10.40;6.80;;;;;;;11.18;66.83;95899.34;5098389;28;20196;-70
2022/10/27 04:24:49;;;;;;;10.15;7.38;;;;;;;11.19;67.10;95893.50;5098485;28;20222;-70
2022/10/27 04:27:16;;;;;;;12.07;7.75;;;;;;;11.20;66.87;95895.09;5099258;28;20555;-70
2022/10/27 04:29:43;;;;;;;11.50;8.02;;;;;;;11.22;66.64;95901.13;5098313;28;20196;-70
2022/10/27 04:32:11;;;;;;;12.50;8.82;;;;;;;11.19;66.90;95899.03;5098628;28;20198;-69
2022/10/27 04:34:38;;;;;;;11.00;7.63;;;;;;;11.15;66.84;95900.00;5099055;28;20192;-69
2022/10/27 04:37:05;;;;;;;11.10;7.38;;;;;;;11.14;67.32;95901.16;5116328;28;20203;-68
2022/10/27 04:39:32;;;;;;;13.65;9.23;;;;;;;11.12;67.54;95907.03;5098346;28;20200;-69
2022/10/27 04:41:58;;;;;;;14.77;10.48;;;;;;;11.01;67.54;95903.06;5098343;28;20196;-69
2022/10/27 04:44:25;;;;;;;14.52;9.50;;;;;;;10.89;67.60;95906.53;5098504;28;20218;-68
2022/10/27 04:46:52;;;;;;;15.75;9.32;;;;;;;10.83;67.98;95905.91;5098557;28;20607;-69
2022/10/27 04:49:20;;;;;;;14.10;10.70;;;;;;;10.80;68.30;95900.25;5098873;28;20206;-69
2022/10/27 04:51:47;;;;;;;16.88;10.82;;;;;;;10.80;68.15;95905.78;5098645;28;20211;-69
2022/10/27 04:54:14;;;;;;;14.95;10.00;;;;;;;10.76;68.17;95911.16;5098213;28;20611;-69
2022/10/27 04:56:40;;;;;;;17.70;10.65;;;;;;;10.76;68.11;95911.16;5098324;28;20238;-68
2022/10/27 04:59:07;;;;;;;15.60;10.80;;;;;;;10.74;68.23;95913.44;5098258;28;20203;-69
2022/10/27 05:01:34;;;;;;;20.65;11.43;;;;;;;10.72;68.47;95914.94;5098186;28;20327;-69
2022/10/27 05:04:01;;;;;;;18.98;10.95;;;;;;;10.70;68.64;95911.69;5098155;28;20192;-69
2022/10/27 05:06:29;;;;;;;17.83;11.80;;;;;;;10.71;68.45;95911.38;5098442;28;20198;-68
2022/10/27 05:08:56;;;;;;;20.10;12.02;;;;;;;10.67;68.48;95923.38;5098085;28;20206;-69
2022/10/27 05:11:22;;;;;;;17.42;11.65;;;;;;;10.65;68.52;95926.47;5098794;28;20218;-69
2022/10/27 05:13:50;;;;;;;20.38;12.32;;;;;;;10.60;68.57;95927.47;5098287;28;20198;-69
2022/10/27 05:16:18;;;;;;;21.55;11.82;;;;;;;10.58;68.68;95940.78;5097965;28;20207;-68
2022/10/27 05:18:45;;;;;;;16.42;11.60;;;;;;;10.58;68.87;95943.53;5098467;28;20279;-68
2022/10/27 05:21:11;;;;;;;18.20;10.70;;;;;;;10.59;68.74;95947.91;5098581;28;20547;-69
2022/10/27 05:23:40;;;;;;;15.18;8.98;;;;;;;10.59;68.73;95950.66;5098121;28;20192;-69
2022/10/27 05:26:06;;;;;;;15.25;9.55;;;;;;;10.60;68.73;95955.06;5098295;28;20208;-68
2022/10/27 05:28:34;;;;;;;15.13;8.77;;;;;;;10.65;68.67;95959.59;5098234;28;20188;-69
2022/10/27 05:31:02;;;;;;;16.35;10.13;;;;;;;10.66;68.73;95971.44;5097972;28;20275;-68
2022/10/27 05:33:29;;;;;;;18.70;10.10;;;;;;;10.64;68.51;95979.22;5098199;28;20187;-69
2022/10/27 05:35:56;;;;;;;17.23;9.05;;;;;;;10.65;68.38;95983.59;5097818;28;20196;-69
2022/10/27 05:38:22;;;;;;;22.33;12.63;;;;;;;10.58;68.62;95982.16;5097744;28;20192;-69
2022/10/27 05:40:56;;;;;;;17.85;10.95;;;;;;;10.53;69.13;95978.75;5098061;28;20199;-69
2022/10/27 05:43:23;;;;;;;16.55;11.38;;;;;;;10.55;68.85;95999.38;5098150;28;20199;-69
2022/10/27 05:45:49;;;;;;;16.48;11.30;;;;;;;10.55;68.59;96002.13;5097960;28;20208;-68
2022/10/27 05:48:16;;;;;;;18.90;10.45;;;;;;;10.52;68.78;96008.31;5097383;28;20196;-69
2022/10/27 05:50:43;;;;;;;18.70;11.00;;;;;;;10.46;69.29;96008.84;5098405;28;20206;-69
2022/10/27 05:53:10;;;;;;;16.17;11.05;;;;;;;10.44;69.25;96009.16;5097732;28;20206;-69
2022/10/27 05:55:37;;;;;;;15.98;12.07;;;;;;;10.44;69.02;96014.66;5087065;28;20239;-69
2022/10/27 05:58:06;;;;;;;17.55;10.50;;;;;;;10.46;69.31;96017.91;5077551;28;20200;-69
2022/10/27 06:00:35;;;;;;;18.38;10.45;;;;;;;10.51;69.46;96019.69;5077541;28;20219;-69
2022/10/27 06:03:03;;;;;;;17.45;11.88;;;;;;;10.51;69.46;96014.16;5077598;28;20203;-69
2022/10/27 06:05:30;;;;;;;18.98;11.77;;;;;;;10.51;69.07;96025.19;5077227;28;20212;-69
2022/10/27 06:07:58;;;;;;;19.70;12.10;;;;;;;10.51;69.46;96020.47;5077265;28;20202;-69
2022/10/27 06:10:25;;;;;;;19.50;10.85;;;;;;;10.51;69.47;96020.47;5077017;28;20193;-69
2022/10/27 06:12:52;;;;;;;10.52;7.80;;;;;;;10.57;68.80;96019.16;5094839;28;20192;-69
2022/10/27 06:15:20;;;;;;;15.10;9.13;;;;;;;10.65;68.09;96020.28;5076986;28;20627;-69
2022/10/27 06:17:52;;;;;;;9.30;6.95;;;;;;;10.74;67.98;96025.75;5077088;28;20188;-69
2022/10/27 06:20:18;;;;;;;9.50;7.80;;;;;;;10.84;67.36;96022.63;5094509;28;20185;-69
2022/10/27 06:22:46;;;;;;;10.02;8.23;;;;;;;10.99;67.11;96029.53;5076836;28;20204;-69
2022/10/27 06:25:13;;;;;;;13.27;8.18;;;;;;;11.11;66.97;96029.66;5079853;28;20216;-69
2022/10/27 06:27:40;;;;;;;10.15;7.70;;;;;;;11.20;66.47;96030.41;5081017;28;20208;-69
2022/10/27 06:30:08;;;;;;;11.57;7.80;;;;;;;11.30;66.33;96030.03;5080531;28;20203;-69
2022/10/27 06:32:38;;;;;;;11.18;8.13;;;;;;;11.46;66.29;96040.50;5080746;28;20200;-68
2022/10/27 06:35:06;;;;;;;10.65;7.75;;;;;;;11.60;65.85;96030.00;5080979;28;20203;-69
2022/10/27 06:37:33;;;;;;;10.88;7.80;;;;;;;11.76;65.97;96038.47;5098288;28;20600;-69
2022/10/27 06:39:59;;;;;;;11.23;7.63;;;;;;;11.90;65.37;96041.81;5080972;28;20188;-68
2022/10/27 06:42:26;;;;;;;8.40;7.03;;;;;;;12.01;65.07;96045.78;5098449;28;20188;-68
2022/10/27 06:44:56;;;;;;;7.97;6.88;;;;;;;12.11;65.06;96046.53;5081335;28;20212;-69
2022/10/27 06:47:23;;;;;;;9.43;5.85;;;;;;;12.20;65.29;96044.47;5080747;28;20265;-69
2022/10/27 06:49:51;;;;;;;8.65;5.53;;;;;;;12.29;64.55;96051.56;5098687;28;20196;-69
2022/10/27 06:52:18;;;;;;;5.90;4.60;;;;;;;12.39;63.83;96046.75;5080439;28;20204;-69
2022/10/27 06:54:44;;;;;;;5.35;4.85;;;;;;;12.50;63.40;96043.22;5100767;28;20228;-69
2022/10/27 06:57:11;;;;;;;7.40;5.00;;;;;;;12.64;63.16;96042.13;5118287;28;20199;-68
2022/10/27 06:59:38;;;;;;;5.60;5.00;;;;;;;12.77;62.87;96035.44;5100773;28;20202;-69
2022/10/27 07:02:05;;;;;;;7.95;4.80;;;;;;;12.88;62.34;96035.78;5118433;28;20290;-69
2022/10/27 07:04:31;;;;;;;5.38;4.88;;;;;;;12.96;61.38;96037.63;5100403;28;20191;-69
2022/10/27 07:06:59;;;;;;;6.03;4.30;;;;;;;13.04;60.80;96041.47;5100316;28;20192;-68
2022/10/27 07:09:26;;;;;;;8.20;4.68;;;;;;;13.14;60.53;96049.31;5101298;28;20219;-69
2022/10/27 07:11:53;;;;;;;5.78;4.35;;;;;;;13.24;60.27;96049.69;5100623;28;20191;-69
2022/10/27 07:14:20;;;;;;;4.78;3.58;;;;;;;13.36;59.90;96051.69;5100084;28;20192;-69
2022/10/27 07:16:46;;;;;;;5.00;3.95;;;;;;;13.44;59.63;96056.28;5118196;28;20192;-68
2022/10/27 07:19:13;;;;;;;5.28;3.85;;;;;;;13.51;58.59;96058.47;5100248;28;20607;-69
2022/10/27 07:21:41;;;;;;;7.65;3.85;;;;;;;13.58;58.75;96057.88;5099723;28;20564;-68
2022/10/27 07:24:09;;;;;;;6.43;4.20;;;;;;;13.65;58.22;96061.69;5099688;28;20211;-68
2022/10/27 07:26:36;;;;;;;7.13;4.45;;;;;;;13.76;58.55;96069.50;5100003;28;20222;-68
2022/10/27 07:29:03;;;;;;;4.38;3.92;;;;;;;13.86;58.14;96067.06;5100385;28;20199;-68
2022/10/27 07:31:29;;;;;;;5.45;4.60;;;;;;;13.99;57.55;96072.59;5099961;28;20238;-68
2022/10/27 07:33:56;;;;;;;5.90;4.18;;;;;;;14.06;58.10;96075.59;5117743;28;20184;-68
2022/10/27 07:36:23;;;;;;;4.80;4.13;;;;;;;14.06;57.50;96068.06;5100008;28;20200;-68
2022/10/27 07:38:50;;;;;;;5.40;4.25;;;;;;;14.03;57.14;96070.75;5117826;28;20184;-68
2022/10/27 07:41:18;;;;;;;5.18;4.03;;;;;;;14.06;57.38;96076.41;5099614;28;20196;-68
2022/10/27 07:43:47;;;;;;;6.50;4.28;;;;;;;14.07;56.48;96075.22;5099776;28;20544;-68
2022/10/27 07:46:14;;;;;;;5.60;4.07;;;;;;;14.14;56.59;96078.22;5099404;28;20215;-68
2022/10/27 07:48:41;;;;;;;6.50;4.75;;;;;;;14.22;56.33;96079.22;5117256;28;20187;-68
2022/10/27 07:51:08;;;;;;;7.30;5.05;;;;;;;14.33;56.30;96074.78;5117468;28;20187;-68
2022/10/27 07:53:35;;;;;;;7.55;5.15;;;;;;;14.43;55.37;96077.06;5099649;28;20192;-69
2022/10/27 07:56:03;;;;;;;6.25;4.68;;;;;;;14.52;55.48;96076.94;5099012;28;20242;-68
2022/10/27 07:58:31;;;;;;;7.68;4.78;;;;;;;14.69;56.35;96075.84;5117470;28;20191;-69
2022/10/27 08:01:02;;;;;;;8.63;5.53;;;;;;;14.80;55.35;96082.47;5116809;28;20199;-68
2022/10/27 08:03:30;;;;;;;6.68;5.60;;;;;;;14.89;55.28;96068.44;5099475;28;20512;-69
2022/10/27 08:06:01;;;;;;;8.70;5.20;;;;;;;15.03;54.69;96065.22;5117279;28;20226;-68
2022/10/27 08:08:29;;;;;;;6.20;5.32;;;;;;;15.17;54.57;96060.81;5117341;28;20253;-69
2022/10/27 08:10:55;;;;;;;4.75;4.25;;;;;;;15.31;53.59;96065.13;5117168;28;20191;-68
2022/10/27 08:13:22;;;;;;;5.38;4.30;;;;;;;15.35;53.00;96060.47;5117160;28;20187;-68
2022/10/27 08:15:50;;;;;;;6.95;4.78;;;;;;;15.37;53.08;96061.72;5117052;28;20191;-68
2022/10/27 08:18:18;;;;;;;6.97;4.68;;;;;;;15.38;52.37;96059.75;5098651;28;20195;-68
2022/10/27 08:20:46;;;;;;;6.80;4.22;;;;;;;15.48;53.29;96061.97;5099581;28;20623;-69
2022/10/27 08:23:14;;;;;;;6.28;4.60;;;;;;;15.68;52.47;96060.09;5098963;28;20196;-68
2022/10/27 08:25:42;;;;;;;5.35;4.40;;;;;;;15.86;51.70;96061.31;5116902;28;20207;-69
2022/10/27 08:28:09;;;;;;;5.55;4.50;;;;;;;15.99;52.16;96058.41;5099159;28;20200;-68
2022/10/27 08:30:36;;;;;;;4.93;3.63;;;;;;;16.10;51.68;96065.00;5098784;28;20654;-68
2022/10/27 08:33:05;;;;;;;6.82;3.70;;;;;;;16.21;50.89;96062.47;5099248;28;20198;-68
2022/10/27 08:35:33;;;;;;;4.75;3.85;;;;;;;16.29;50.99;96053.88;5098760;28;20203;-68
2022/10/27 08:38:00;;;;;;;6.18;4.07;;;;;;;16.43;50.03;96061.72;5098716;28;20187;-68
2022/10/27 08:40:34;;;;;;;6.75;3.67;;;;;;;16.57;50.21;96056.44;5098966;28;20207;-69
2022/10/27 08:43:04;;;;;;;4.85;3.72;;;;;;;16.71;50.91;96058.72;5116841;28;20188;-68
2022/10/27 08:45:34;;;;;;;7.28;3.75;;;;;;;16.87;50.95;96057.84;5098902;28;20212;-69
2022/10/27 08:48:01;;;;;;;4.78;3.40;;;;;;;16.96;48.63;96059.22;5098102;28;20198;-69
2022/10/27 08:50:34;;;;;;;6.50;3.45;;;;;;;17.05;49.83;96048.63;5116324;28;20187;-69
2022/10/27 08:53:03;;;;;;;6.57;3.25;;;;;;;17.14;48.21;96053.13;5098734;28;20286;-69
2022/10/27 08:55:32;;;;;;;5.70;3.60;;;;;;;17.15;48.75;96050.00;5089099;28;20223;-69
2022/10/27 08:58:01;;;;;;;4.55;3.35;;;;;;;17.33;48.26;96047.50;5061989;28;20291;-69
2022/10/27 09:00:30;;;;;;;6.10;4.63;;;;;;;17.45;48.75;96050.09;5095499;28;20192;-69
2022/10/27 09:03:06;;;;;;;6.43;3.50;;;;;;;17.62;47.36;96050.75;5096095;28;20199;-68
2022/10/27 09:05:44;;;;;;;6.10;3.75;;;;;;;17.66;46.92;96052.41;5077650;28;20643;-68
2022/10/27 09:08:17;;;;;;;3.97;3.10;;;;;;;17.78;46.34;96046.63;5095989;28;20184;-68
2022/10/27 09:10:48;;;;;;;4.40;3.30;;;;;;;17.89;46.39;96052.38;5078043;28;20199;-68
2022/10/27 09:13:24;;;;;;;4.47;3.10;;;;;;;18.01;45.85;96052.19;5078309;28;20199;-69
2022/10/27 09:15:53;;;;;;;6.65;3.15;;;;;;;18.06;45.31;96056.63;5095476;28;20526;-69
2022/10/27 09:18:24;;;;;;;4.15;3.08;;;;;;;18.16;46.10;96050.38;5095442;28;20270;-69
2022/10/27 09:20:54;;;;;;;4.80;3.30;;;;;;;18.28;45.80;96050.13;5077618;28;20196;-69
2022/10/27 09:23:24;;;;;;;3.78;3.17;;;;;;;18.40;44.82;96039.91;5077737;28;20196;-69
2022/10/27 09:25:53;;;;;;;3.40;3.10;;;;;;;18.50;45.38;96037.25;5077984;28;20204;-69
2022/10/27 09:28:24;;;;;;;4.28;3.33;;;;;;;18.60;44.00;96046.13;5095144;28;20191;-69
2022/10/27 09:30:52;;;;;;;4.40;3.45;;;;;;;18.69;44.62;96036.25;5077945;28;20188;-69
2022/10/27 09:33:21;;;;;;;5.40;3.35;;;;;;;18.85;44.64;96036.06;5077795;28;20193;-68
2022/10/27 09:35:49;;;;;;;6.38;3.47;;;;;;;19.04;43.86;96035.06;5077730;28;20195;-69
2022/10/27 09:38:21;;;;;;;4.03;3.63;;;;;;;19.14;43.58;96033.56;5077469;28;20196;-69
2022/10/27 09:40:48;;;;;;;6.32;3.92;;;;;;;19.33;43.12;96035.31;5077637;28;20207;-69
2022/10/27 09:43:15;;;;;;;3.88;3.50;;;;;;;19.47;43.22;96030.66;5077647;28;20189;-69
2022/10/27 09:45:42;;;;;;;4.70;3.67;;;;;;;19.56;42.62;96032.31;5077621;28;20316;-68
2022/10/27 09:48:15;;;;;;;4.68;3.58;;;;;;;19.67;42.64;96020.03;5077239;28;20648;-69
2022/10/27 09:50:45;;;;;;;7.65;3.65;;;;;;;19.86;42.72;96023.75;5078263;28;20204;-69
2022/10/27 09:53:38;;;;;;;7.57;3.78;;;;;;;19.99;42.17;96025.03;5077809;28;20200;-69
2022/10/27 09:56:06;;;;;;;6.10;4.18;;;;;;;20.08;40.83;96014.31;5091226;28;20663;-69
2022/10/27 09:58:46;;;;;;;5.53;3.90;;;;;;;20.14;40.54;96007.13;5097908;28;20204;-69
2022/10/27 10:01:14;;;;;;;6.07;3.97;;;;;;;20.25;40.29;96011.97;5101932;28;20244;-69
2022/10/27 10:03:56;;;;;;;5.05;3.78;;;;;;;20.42;40.83;96003.66;5101868;28;20200;-68
2022/10/27 10:06:28;;;;;;;6.68;3.45;;;;;;;20.62;39.85;96006.94;5101234;28;20551;-69
2022/10/27 10:09:15;;;;;;;3.85;2.05;;;;;;;20.73;37.01;96000.56;5101969;28;20615;-69
2022/10/27 10:11:42;;;;;;;4.40;2.58;;;;;;;20.85;37.52;96009.41;5101764;28;20195;-69
2022/10/27 10:14:20;;;;;;;4.10;2.88;;;;;;;20.72;37.50;96007.38;5119600;28;20588;-69
2022/10/27 10:16:47;;;;;;;3.95;2.70;;;;;;;20.86;37.92;96004.59;5119423;28;20203;-69
2022/10/27 10:19:17;;;;;;;4.53;2.80;;;;;;;21.03;37.32;96012.25;5101716;28;20203;-69
2022/10/27 10:21:46;;;;;;;2.55;2.35;;;;;;;21.15;36.32;96000.66;5101909;28;20627;-68
2022/10/27 10:24:19;;;;;;;3.08;2.50;;;;;;;21.10;36.40;96003.06;5101113;28;20290;-69
2022/10/27 10:26:47;;;;;;;2.40;2.20;;;;;;;21.16;36.83;96004.25;5101643;28;20215;-69
2022/10/27 10:29:26;;;;;;;3.58;2.50;;;;;;;21.20;36.55;95996.63;5101786;28;20192;-69
2022/10/27 10:31:54;;;;;;;2.75;2.42;;;;;;;21.29;34.97;95997.06;5100999;28;20180;-68
2022/10/27 10:34:30;;;;;;;2.72;2.25;;;;;;;21.39;35.84;95989.88;5100965;28;20533;-69
2022/10/27 10:36:57;;;;;;;2.50;2.20;;;;;;;21.39;35.55;95992.69;5101130;28;20216;-69
2022/10/27 10:39:27;;;;;;;3.92;2.40;;;;;;;21.44;35.84;95997.09;5118706;28;20192;-69
2022/10/27 10:42:21;;;;;;;4.20;2.80;;;;;;;21.29;34.33;95999.06;5119065;28;20180;-69
2022/10/27 10:44:48;;;;;;;2.85;2.10;;;;;;;21.12;34.88;95993.03;5054558;28;20207;-69
2022/10/27 10:47:24;;;;;;;2.30;2.10;;;;;;;20.92;33.37;95992.63;5101254;28;20238;-69
2022/10/27 10:49:52;;;;;;;2.20;2.00;;;;;;;20.78;33.67;95986.19;5100982;28;20192;-68
2022/10/27 10:52:22;;;;;;;1.70;1.60;;;;;;;20.71;32.52;95989.75;5100946;28;20200;-69
2022/10/27 10:54:50;;;;;;;2.55;2.00;;;;;;;20.65;34.55;95980.91;5115372;28;20224;-69
2022/10/27 10:57:25;;;;;;;3.05;2.35;;;;;;;20.83;34.97;95977.38;5080522;28;20201;-69
2022/10/27 10:59:53;;;;;;;3.38;2.88;;;;;;;20.88;34.24;95982.59;5080610;28;20207;-69
2022/10/27 11:02:26;;;;;;;3.72;3.08;;;;;;;20.79;34.72;95980.16;5097741;28;20189;-69
2022/10/27 11:04:53;;;;;;;2.42;2.22;;;;;;;20.73;34.94;95975.34;5080478;28;20211;-69
2022/10/27 11:07:23;;;;;;;2.95;2.38;;;;;;;20.77;34.78;95976.97;5098028;28;20242;-69
2022/10/27 11:09:56;;;;;;;2.63;2.15;;;;;;;20.81;34.26;95968.56;5079581;28;20628;-69
2022/10/27 11:12:28;;;;;;;2.70;2.42;;;;;;;20.84;33.43;95976.16;5080357;28;20188;-68
2022/10/27 11:14:57;;;;;;;2.10;1.90;;;;;;;20.81;33.01;95968.56;5080125;28;20197;-68
2022/10/27 11:17:24;;;;;;;2.67;1.92;;;;;;;20.76;34.04;95964.13;5098024;28;20250;-68
2022/10/27 11:19:52;;;;;;;3.17;2.40;;;;;;;20.73;32.89;95958.50;5097894;28;20227;-69
2022/10/27 11:22:20;;;;;;;2.58;2.20;;;;;;;20.72;33.86;95963.31;5097873;28;20189;-68
2022/10/27 11:24:50;;;;;;;2.67;2.05;;;;;;;20.70;33.19;95953.69;5080530;28;20188;-69
2022/10/27 11:27:24;;;;;;;2.63;1.55;;;;;;;20.58;31.68;95947.28;5097814;28;20216;-68
2022/10/27 11:29:57;;;;;;;3.35;2.00;;;;;;;20.51;32.20;95952.06;5079976;28;20207;-68
2022/10/27 11:32:26;;;;;;;1.73;1.63;;;;;;;20.55;32.86;95952.88;5097949;28;20195;-69
2022/10/27 11:34:59;;;;;;;2.60;2.33;;;;;;;20.53;33.06;95953.28;5097786;28;20266;-69
2022/10/27 11:37:32;;;;;;;2.20;2.00;;;;;;;20.51;31.79;95957.66;5097662;28;20184;-69
2022/10/27 11:40:03;;;;;;;1.92;1.60;;;;;;;20.55;31.89;95947.25;5097245;28;20650;-68
2022/10/27 11:42:36;;;;;;;1.77;1.50;;;;;;;20.54;29.90;95948.47;5097514;28;20196;-69